sensor_id;sensor_type;location;lat;lon;timestamp;temperature;humidity
12971;DHT22;6550;48.650;8.774;2023-07-30T00:01:32;20.10;99.90
12971;DHT22;6550;48.650;8.774;2023-07-30T00:04:00;20.20;99.90
12971;DHT22;6550;48.650;8.774;2023-07-30T00:06:26;20.90;99.90
12971;DHT22;6550;48.650;8.774;2023-07-30T00:08:53;20.00;99.90
12971;DHT22;6550;48.650;8.774;2023-07-30T00:11:20;20.30;99.90
12971;DHT22;6550;48.650;8.774;2023-07-30T00:13:47;20.00;99.90
12971;DHT22;6550;48.650;8.774;2023-07-30T00:16:15;20.40;99.90
12971;DHT22;6550;48.650;8.774;2023-07-30T00:18:42;19.90;99.90
12971;DHT22;6550;48.650;8.774;2023-07-30T00:21:12;19.90;99.90
12971;DHT22;6550;48.650;8.774;2023-07-30T00:23:39;20.10;99.90
12971;DHT22;6550;48.650;8.774;2023-07-30T00:26:08;20.20;99.90
12971;DHT22;6550;48.650;8.774;2023-07-30T00:28:37;20.10;99.90
12971;DHT22;6550;48.650;8.774;2023-07-30T00:31:06;20.30;99.90
12971;DHT22;6550;48.650;8.774;2023-07-30T00:33:32;20.30;99.90
12971;DHT22;6550;48.650;8.774;2023-07-30T00:35:59;20.40;99.90
12971;DHT22;6550;48.650;8.774;2023-07-30T00:38:29;20.10;99.90
12971;DHT22;6550;48.650;8.774;2023-07-30T00:40:55;20.00;99.90
12971;DHT22;6550;48.650;8.774;2023-07-30T00:43:23;20.00;99.90
12971;DHT22;6550;48.650;8.774;2023-07-30T00:45:50;20.00;99.90
12971;DHT22;6550;48.650;8.774;2023-07-30T00:48:19;20.00;99.90
12971;DHT22;6550;48.650;8.774;2023-07-30T00:50:46;20.00;99.90
12971;DHT22;6550;48.650;8.774;2023-07-30T00:53:16;19.90;99.90
12971;DHT22;6550;48.650;8.774;2023-07-30T00:58:14;20.20;99.90
12971;DHT22;6550;48.650;8.774;2023-07-30T01:00:41;20.20;99.90
12971;DHT22;6550;48.650;8.774;2023-07-30T01:03:08;20.20;99.90
12971;DHT22;6550;48.650;8.774;2023-07-30T01:05:36;20.20;99.90
12971;DHT22;6550;48.650;8.774;2023-07-30T01:08:05;20.50;99.90
12971;DHT22;6550;48.650;8.774;2023-07-30T01:10:32;20.30;99.90
12971;DHT22;6550;48.650;8.774;2023-07-30T01:13:01;20.20;99.90
12971;DHT22;6550;48.650;8.774;2023-07-30T01:15:29;20.20;99.90
12971;DHT22;6550;48.650;8.774;2023-07-30T01:17:59;20.10;99.90
12971;DHT22;6550;48.650;8.774;2023-07-30T01:20:30;19.90;99.90
12971;DHT22;6550;48.650;8.774;2023-07-30T01:23:00;19.70;99.90
12971;DHT22;6550;48.650;8.774;2023-07-30T01:25:36;19.70;99.90
12971;DHT22;6550;48.650;8.774;2023-07-30T01:28:07;19.90;99.90
12971;DHT22;6550;48.650;8.774;2023-07-30T01:30:40;20.00;99.90
12971;DHT22;6550;48.650;8.774;2023-07-30T01:33:13;19.90;99.90
12971;DHT22;6550;48.650;8.774;2023-07-30T01:35:41;19.70;99.90
12971;DHT22;6550;48.650;8.774;2023-07-30T01:38:10;19.60;99.90
12971;DHT22;6550;48.650;8.774;2023-07-30T01:40:37;19.50;99.90
12971;DHT22;6550;48.650;8.774;2023-07-30T01:43:04;19.80;99.90
12971;DHT22;6550;48.650;8.774;2023-07-30T01:45:31;19.90;99.90
12971;DHT22;6550;48.650;8.774;2023-07-30T01:48:00;19.90;99.90
12971;DHT22;6550;48.650;8.774;2023-07-30T01:50:29;19.80;99.90
12971;DHT22;6550;48.650;8.774;2023-07-30T01:52:59;19.80;99.90
12971;DHT22;6550;48.650;8.774;2023-07-30T01:55:25;19.70;99.90
12971;DHT22;6550;48.650;8.774;2023-07-30T01:57:52;19.50;99.90
12971;DHT22;6550;48.650;8.774;2023-07-30T02:00:19;19.30;99.90
12971;DHT22;6550;48.650;8.774;2023-07-30T02:02:46;19.40;99.90
12971;DHT22;6550;48.650;8.774;2023-07-30T02:05:12;19.30;99.90
12971;DHT22;6550;48.650;8.774;2023-07-30T02:07:42;19.50;99.90
12971;DHT22;6550;48.650;8.774;2023-07-30T02:10:09;19.80;99.90
12971;DHT22;6550;48.650;8.774;2023-07-30T02:12:38;19.60;99.90
12971;DHT22;6550;48.650;8.774;2023-07-30T02:15:08;19.80;99.90
12971;DHT22;6550;48.650;8.774;2023-07-30T02:17:34;19.60;99.90
12971;DHT22;6550;48.650;8.774;2023-07-30T02:20:01;19.50;99.90
12971;DHT22;6550;48.650;8.774;2023-07-30T02:22:31;19.40;99.90
12971;DHT22;6550;48.650;8.774;2023-07-30T02:25:00;19.40;99.90
12971;DHT22;6550;48.650;8.774;2023-07-30T02:27:28;19.40;99.90
12971;DHT22;6550;48.650;8.774;2023-07-30T02:29:57;19.40;99.90
12971;DHT22;6550;48.650;8.774;2023-07-30T02:32:26;19.40;99.90
12971;DHT22;6550;48.650;8.774;2023-07-30T02:34:58;19.20;99.90
12971;DHT22;6550;48.650;8.774;2023-07-30T02:37:24;19.00;99.90
12971;DHT22;6550;48.650;8.774;2023-07-30T02:39:51;19.10;99.90
12971;DHT22;6550;48.650;8.774;2023-07-30T02:42:20;19.10;99.90
12971;DHT22;6550;48.650;8.774;2023-07-30T02:44:47;19.20;99.90
12971;DHT22;6550;48.650;8.774;2023-07-30T02:47:14;19.40;99.90
12971;DHT22;6550;48.650;8.774;2023-07-30T02:49:43;19.20;99.90
12971;DHT22;6550;48.650;8.774;2023-07-30T02:52:14;19.50;99.90
12971;DHT22;6550;48.650;8.774;2023-07-30T02:54:41;19.30;99.90
12971;DHT22;6550;48.650;8.774;2023-07-30T02:57:10;19.10;99.90
12971;DHT22;6550;48.650;8.774;2023-07-30T02:59:37;19.10;99.90
12971;DHT22;6550;48.650;8.774;2023-07-30T03:02:04;19.00;99.90
12971;DHT22;6550;48.650;8.774;2023-07-30T03:07:02;19.10;99.90
12971;DHT22;6550;48.650;8.774;2023-07-30T03:09:30;19.00;99.90
12971;DHT22;6550;48.650;8.774;2023-07-30T03:11:56;19.20;99.90
12971;DHT22;6550;48.650;8.774;2023-07-30T03:14:26;19.20;99.90
12971;DHT22;6550;48.650;8.774;2023-07-30T03:16:55;19.30;99.90
12971;DHT22;6550;48.650;8.774;2023-07-30T03:19:22;19.50;99.90
12971;DHT22;6550;48.650;8.774;2023-07-30T03:21:48;19.20;99.90
12971;DHT22;6550;48.650;8.774;2023-07-30T03:24:18;19.50;99.90
12971;DHT22;6550;48.650;8.774;2023-07-30T03:26:45;19.40;99.90
12971;DHT22;6550;48.650;8.774;2023-07-30T03:29:11;19.00;99.90
12971;DHT22;6550;48.650;8.774;2023-07-30T03:31:41;19.20;99.90
12971;DHT22;6550;48.650;8.774;2023-07-30T03:34:10;19.30;99.90
12971;DHT22;6550;48.650;8.774;2023-07-30T03:36:36;19.20;99.90
12971;DHT22;6550;48.650;8.774;2023-07-30T03:39:06;19.10;99.90
12971;DHT22;6550;48.650;8.774;2023-07-30T03:41:35;19.30;99.90
12971;DHT22;6550;48.650;8.774;2023-07-30T03:44:07;19.00;99.90
12971;DHT22;6550;48.650;8.774;2023-07-30T03:46:36;19.30;99.90
12971;DHT22;6550;48.650;8.774;2023-07-30T03:49:05;19.30;99.90
12971;DHT22;6550;48.650;8.774;2023-07-30T03:51:34;19.20;99.90
12971;DHT22;6550;48.650;8.774;2023-07-30T03:54:05;19.10;99.90
12971;DHT22;6550;48.650;8.774;2023-07-30T03:56:34;19.10;99.90
12971;DHT22;6550;48.650;8.774;2023-07-30T04:01:28;19.10;99.90
12971;DHT22;6550;48.650;8.774;2023-07-30T04:06:26;19.00;99.90
12971;DHT22;6550;48.650;8.774;2023-07-30T04:08:53;19.10;99.90
12971;DHT22;6550;48.650;8.774;2023-07-30T04:13:46;19.00;99.90
12971;DHT22;6550;48.650;8.774;2023-07-30T04:16:13;19.00;99.90
12971;DHT22;6550;48.650;8.774;2023-07-30T04:18:40;19.10;99.90
12971;DHT22;6550;48.650;8.774;2023-07-30T04:21:10;19.00;99.90
12971;DHT22;6550;48.650;8.774;2023-07-30T04:23:39;19.00;99.90
12971;DHT22;6550;48.650;8.774;2023-07-30T04:26:06;19.10;99.90
12971;DHT22;6550;48.650;8.774;2023-07-30T04:28:33;19.10;99.90
12971;DHT22;6550;48.650;8.774;2023-07-30T04:31:02;19.00;99.90
12971;DHT22;6550;48.650;8.774;2023-07-30T04:33:32;18.90;99.90
12971;DHT22;6550;48.650;8.774;2023-07-30T04:35:58;18.80;99.90
12971;DHT22;6550;48.650;8.774;2023-07-30T04:38:28;18.90;99.90
12971;DHT22;6550;48.650;8.774;2023-07-30T04:41:00;18.90;99.90
12971;DHT22;6550;48.650;8.774;2023-07-30T04:43:28;19.20;99.90
12971;DHT22;6550;48.650;8.774;2023-07-30T04:45:55;19.00;99.90
12971;DHT22;6550;48.650;8.774;2023-07-30T04:48:24;18.80;99.90
12971;DHT22;6550;48.650;8.774;2023-07-30T04:50:51;19.00;99.90
12971;DHT22;6550;48.650;8.774;2023-07-30T04:53:17;19.00;99.90
12971;DHT22;6550;48.650;8.774;2023-07-30T04:55:45;19.00;99.90
12971;DHT22;6550;48.650;8.774;2023-07-30T04:58:14;19.00;99.90
12971;DHT22;6550;48.650;8.774;2023-07-30T05:00:41;19.20;99.90
12971;DHT22;6550;48.650;8.774;2023-07-30T05:03:08;19.10;99.90
12971;DHT22;6550;48.650;8.774;2023-07-30T05:05:37;19.20;99.90
12971;DHT22;6550;48.650;8.774;2023-07-30T05:08:06;19.10;99.90
12971;DHT22;6550;48.650;8.774;2023-07-30T05:10:33;19.20;99.90
12971;DHT22;6550;48.650;8.774;2023-07-30T05:13:05;19.30;99.90
12971;DHT22;6550;48.650;8.774;2023-07-30T05:15:34;19.30;99.90
12971;DHT22;6550;48.650;8.774;2023-07-30T05:18:03;19.30;99.90
12971;DHT22;6550;48.650;8.774;2023-07-30T05:20:30;19.20;99.90
12971;DHT22;6550;48.650;8.774;2023-07-30T05:22:57;19.20;99.90
12971;DHT22;6550;48.650;8.774;2023-07-30T05:25:24;19.20;99.90
12971;DHT22;6550;48.650;8.774;2023-07-30T05:27:53;19.10;99.90
12971;DHT22;6550;48.650;8.774;2023-07-30T05:30:23;19.20;99.90
12971;DHT22;6550;48.650;8.774;2023-07-30T05:32:49;19.20;99.90
12971;DHT22;6550;48.650;8.774;2023-07-30T05:35:17;19.40;99.90
12971;DHT22;6550;48.650;8.774;2023-07-30T05:37:45;19.30;99.90
12971;DHT22;6550;48.650;8.774;2023-07-30T05:40:12;19.70;99.90
12971;DHT22;6550;48.650;8.774;2023-07-30T05:42:39;19.40;99.90
12971;DHT22;6550;48.650;8.774;2023-07-30T05:45:06;19.50;99.90
12971;DHT22;6550;48.650;8.774;2023-07-30T05:47:33;19.60;99.90
12971;DHT22;6550;48.650;8.774;2023-07-30T05:50:03;19.60;99.90
12971;DHT22;6550;48.650;8.774;2023-07-30T05:52:30;19.60;99.90
12971;DHT22;6550;48.650;8.774;2023-07-30T05:54:57;19.70;99.90
12971;DHT22;6550;48.650;8.774;2023-07-30T05:57:24;19.90;99.90
12971;DHT22;6550;48.650;8.774;2023-07-30T05:59:53;19.60;99.90
12971;DHT22;6550;48.650;8.774;2023-07-30T06:02:20;19.40;99.90
12971;DHT22;6550;48.650;8.774;2023-07-30T06:04:47;19.70;99.90
12971;DHT22;6550;48.650;8.774;2023-07-30T06:07:15;19.90;99.90
12971;DHT22;6550;48.650;8.774;2023-07-30T06:09:42;20.00;99.90
12971;DHT22;6550;48.650;8.774;2023-07-30T06:12:12;20.00;99.90
12971;DHT22;6550;48.650;8.774;2023-07-30T06:14:39;20.00;99.90
12971;DHT22;6550;48.650;8.774;2023-07-30T06:17:05;20.20;99.90
12971;DHT22;6550;48.650;8.774;2023-07-30T06:19:32;20.20;99.90
12971;DHT22;6550;48.650;8.774;2023-07-30T06:21:59;20.40;99.90
12971;DHT22;6550;48.650;8.774;2023-07-30T06:24:28;20.60;99.90
12971;DHT22;6550;48.650;8.774;2023-07-30T06:29:25;20.70;99.90
12971;DHT22;6550;48.650;8.774;2023-07-30T06:34:21;20.60;99.90
12971;DHT22;6550;48.650;8.774;2023-07-30T06:36:48;20.50;99.90
12971;DHT22;6550;48.650;8.774;2023-07-30T06:39:15;20.40;99.90
12971;DHT22;6550;48.650;8.774;2023-07-30T06:41:41;20.10;99.90
12971;DHT22;6550;48.650;8.774;2023-07-30T06:46:36;20.30;99.90
12971;DHT22;6550;48.650;8.774;2023-07-30T06:49:05;20.30;99.90
12971;DHT22;6550;48.650;8.774;2023-07-30T06:51:32;20.30;99.90
12971;DHT22;6550;48.650;8.774;2023-07-30T06:53:59;20.30;99.90
12971;DHT22;6550;48.650;8.774;2023-07-30T06:56:26;20.30;99.90
12971;DHT22;6550;48.650;8.774;2023-07-30T06:58:54;20.80;99.90
12971;DHT22;6550;48.650;8.774;2023-07-30T07:01:23;20.30;99.90
12971;DHT22;6550;48.650;8.774;2023-07-30T07:03:53;20.30;99.90
12971;DHT22;6550;48.650;8.774;2023-07-30T07:06:20;20.40;99.90
12971;DHT22;6550;48.650;8.774;2023-07-30T07:08:49;20.40;99.90
12971;DHT22;6550;48.650;8.774;2023-07-30T07:11:16;20.50;99.90
12971;DHT22;6550;48.650;8.774;2023-07-30T07:13:42;20.40;99.90
12971;DHT22;6550;48.650;8.774;2023-07-30T07:16:12;21.30;99.90
12971;DHT22;6550;48.650;8.774;2023-07-30T07:18:41;20.50;99.90
12971;DHT22;6550;48.650;8.774;2023-07-30T07:23:35;20.60;99.90
12971;DHT22;6550;48.650;8.774;2023-07-30T07:26:04;20.60;99.90
12971;DHT22;6550;48.650;8.774;2023-07-30T07:28:33;20.60;99.90
12971;DHT22;6550;48.650;8.774;2023-07-30T07:33:28;20.70;99.90
12971;DHT22;6550;48.650;8.774;2023-07-30T07:36:06;20.70;99.90
12971;DHT22;6550;48.650;8.774;2023-07-30T07:38:33;20.70;99.90
12971;DHT22;6550;48.650;8.774;2023-07-30T07:41:03;20.80;99.90
12971;DHT22;6550;48.650;8.774;2023-07-30T07:43:30;20.80;99.90
12971;DHT22;6550;48.650;8.774;2023-07-30T07:48:24;20.90;99.90
12971;DHT22;6550;48.650;8.774;2023-07-30T07:50:53;20.90;99.90
12971;DHT22;6550;48.650;8.774;2023-07-30T07:53:22;21.10;99.90
12971;DHT22;6550;48.650;8.774;2023-07-30T07:55:49;21.20;99.90
12971;DHT22;6550;48.650;8.774;2023-07-30T07:58:16;21.30;99.90
12971;DHT22;6550;48.650;8.774;2023-07-30T08:00:45;21.60;99.90
12971;DHT22;6550;48.650;8.774;2023-07-30T08:03:12;21.80;99.90
12971;DHT22;6550;48.650;8.774;2023-07-30T08:05:39;22.00;99.90
12971;DHT22;6550;48.650;8.774;2023-07-30T08:08:11;22.30;99.90
12971;DHT22;6550;48.650;8.774;2023-07-30T08:13:09;22.50;99.90
12971;DHT22;6550;48.650;8.774;2023-07-30T08:15:37;22.30;99.90
12971;DHT22;6550;48.650;8.774;2023-07-30T08:18:06;22.40;99.90
12971;DHT22;6550;48.650;8.774;2023-07-30T08:20:33;22.60;99.90
12971;DHT22;6550;48.650;8.774;2023-07-30T08:23:02;22.70;99.90
12971;DHT22;6550;48.650;8.774;2023-07-30T08:25:29;22.70;99.90
12971;DHT22;6550;48.650;8.774;2023-07-30T08:27:55;22.50;99.90
12971;DHT22;6550;48.650;8.774;2023-07-30T08:30:25;22.40;99.90
12971;DHT22;6550;48.650;8.774;2023-07-30T08:32:56;22.40;99.90
12971;DHT22;6550;48.650;8.774;2023-07-30T08:35:23;22.50;99.90
12971;DHT22;6550;48.650;8.774;2023-07-30T08:37:50;22.50;99.90
12971;DHT22;6550;48.650;8.774;2023-07-30T08:40:17;22.70;99.90
12971;DHT22;6550;48.650;8.774;2023-07-30T08:45:11;22.80;99.90
12971;DHT22;6550;48.650;8.774;2023-07-30T08:47:39;22.70;99.90
12971;DHT22;6550;48.650;8.774;2023-07-30T08:50:08;22.60;99.90
12971;DHT22;6550;48.650;8.774;2023-07-30T08:52:35;22.50;99.90
12971;DHT22;6550;48.650;8.774;2023-07-30T08:55:08;22.30;99.90
12971;DHT22;6550;48.650;8.774;2023-07-30T08:57:37;22.30;99.90
12971;DHT22;6550;48.650;8.774;2023-07-30T09:00:08;22.30;99.90
12971;DHT22;6550;48.650;8.774;2023-07-30T09:05:15;22.50;99.90
12971;DHT22;6550;48.650;8.774;2023-07-30T09:07:42;22.50;99.90
12971;DHT22;6550;48.650;8.774;2023-07-30T09:10:09;22.40;99.90
12971;DHT22;6550;48.650;8.774;2023-07-30T09:12:36;22.10;99.90
12971;DHT22;6550;48.650;8.774;2023-07-30T09:15:03;22.10;99.90
12971;DHT22;6550;48.650;8.774;2023-07-30T09:17:36;22.00;99.90
12971;DHT22;6550;48.650;8.774;2023-07-30T09:20:04;21.90;99.90
12971;DHT22;6550;48.650;8.774;2023-07-30T09:22:36;22.00;99.90
12971;DHT22;6550;48.650;8.774;2023-07-30T09:25:07;22.00;99.90
12971;DHT22;6550;48.650;8.774;2023-07-30T09:27:37;21.90;99.90
12971;DHT22;6550;48.650;8.774;2023-07-30T09:30:04;21.90;99.90
12971;DHT22;6550;48.650;8.774;2023-07-30T09:32:37;22.00;99.90
12971;DHT22;6550;48.650;8.774;2023-07-30T09:35:12;22.10;99.90
12971;DHT22;6550;48.650;8.774;2023-07-30T09:37:42;22.20;99.90
12971;DHT22;6550;48.650;8.774;2023-07-30T09:40:14;22.40;99.90
12971;DHT22;6550;48.650;8.774;2023-07-30T09:42:46;22.50;99.90
12971;DHT22;6550;48.650;8.774;2023-07-30T09:45:22;22.90;99.90
12971;DHT22;6550;48.650;8.774;2023-07-30T09:47:51;22.90;99.90
12971;DHT22;6550;48.650;8.774;2023-07-30T09:50:18;23.30;99.90
12971;DHT22;6550;48.650;8.774;2023-07-30T09:52:45;23.60;99.90
12971;DHT22;6550;48.650;8.774;2023-07-30T09:55:12;23.70;99.90
12971;DHT22;6550;48.650;8.774;2023-07-30T09:57:39;23.80;99.90
12971;DHT22;6550;48.650;8.774;2023-07-30T10:00:07;23.90;99.90
12971;DHT22;6550;48.650;8.774;2023-07-30T10:02:39;24.20;99.90
12971;DHT22;6550;48.650;8.774;2023-07-30T10:05:11;24.50;99.90
12971;DHT22;6550;48.650;8.774;2023-07-30T10:08:18;24.50;99.90
12971;DHT22;6550;48.650;8.774;2023-07-30T10:10:46;24.30;99.90
12971;DHT22;6550;48.650;8.774;2023-07-30T10:13:15;24.30;99.90
12971;DHT22;6550;48.650;8.774;2023-07-30T10:15:43;23.80;99.90
12971;DHT22;6550;48.650;8.774;2023-07-30T10:18:13;23.80;99.90
12971;DHT22;6550;48.650;8.774;2023-07-30T10:20:40;23.80;99.90
12971;DHT22;6550;48.650;8.774;2023-07-30T10:23:07;23.70;99.90
12971;DHT22;6550;48.650;8.774;2023-07-30T10:25:46;23.90;99.90
12971;DHT22;6550;48.650;8.774;2023-07-30T10:28:33;24.00;99.80
12971;DHT22;6550;48.650;8.774;2023-07-30T10:31:05;23.90;99.80
12971;DHT22;6550;48.650;8.774;2023-07-30T10:33:52;24.10;99.90
12971;DHT22;6550;48.650;8.774;2023-07-30T10:39:20;24.30;99.30
12971;DHT22;6550;48.650;8.774;2023-07-30T10:41:50;24.30;99.30
12971;DHT22;6550;48.650;8.774;2023-07-30T10:46:48;24.70;98.70
12971;DHT22;6550;48.650;8.774;2023-07-30T10:49:17;24.80;98.00
12971;DHT22;6550;48.650;8.774;2023-07-30T10:51:44;24.90;98.00
12971;DHT22;6550;48.650;8.774;2023-07-30T10:54:11;24.70;95.90
12971;DHT22;6550;48.650;8.774;2023-07-30T10:56:38;24.50;95.60
12971;DHT22;6550;48.650;8.774;2023-07-30T10:59:06;24.30;96.30
12971;DHT22;6550;48.650;8.774;2023-07-30T11:01:44;24.50;95.10
12971;DHT22;6550;48.650;8.774;2023-07-30T11:04:17;24.80;96.80
12971;DHT22;6550;48.650;8.774;2023-07-30T11:06:49;24.90;97.60
12971;DHT22;6550;48.650;8.774;2023-07-30T11:09:22;25.00;96.30
12971;DHT22;6550;48.650;8.774;2023-07-30T11:11:51;25.00;94.80
12971;DHT22;6550;48.650;8.774;2023-07-30T11:14:24;25.20;94.40
12971;DHT22;6550;48.650;8.774;2023-07-30T11:16:58;25.20;93.50
12971;DHT22;6550;48.650;8.774;2023-07-30T11:19:28;24.90;92.60
12971;DHT22;6550;48.650;8.774;2023-07-30T11:21:56;25.20;92.80
12971;DHT22;6550;48.650;8.774;2023-07-30T11:24:36;25.50;92.30
12971;DHT22;6550;48.650;8.774;2023-07-30T11:27:06;25.90;92.50
12971;DHT22;6550;48.650;8.774;2023-07-30T11:32:03;26.10;92.50
12971;DHT22;6550;48.650;8.774;2023-07-30T11:34:30;26.00;91.70
12971;DHT22;6550;48.650;8.774;2023-07-30T11:37:02;25.80;92.30
12971;DHT22;6550;48.650;8.774;2023-07-30T11:41:59;25.90;92.60
12971;DHT22;6550;48.650;8.774;2023-07-30T11:44:35;25.90;93.70
12971;DHT22;6550;48.650;8.774;2023-07-30T11:47:04;25.90;92.40
12971;DHT22;6550;48.650;8.774;2023-07-30T11:49:36;25.90;93.50
12971;DHT22;6550;48.650;8.774;2023-07-30T11:52:10;25.70;91.70
12971;DHT22;6550;48.650;8.774;2023-07-30T11:54:37;25.50;91.70
12971;DHT22;6550;48.650;8.774;2023-07-30T11:57:04;25.30;91.70
12971;DHT22;6550;48.650;8.774;2023-07-30T11:59:34;24.90;92.70
12971;DHT22;6550;48.650;8.774;2023-07-30T12:04:42;24.30;94.00
12971;DHT22;6550;48.650;8.774;2023-07-30T12:07:10;24.30;94.00
12971;DHT22;6550;48.650;8.774;2023-07-30T12:09:37;24.50;94.30
12971;DHT22;6550;48.650;8.774;2023-07-30T12:12:06;24.50;94.90
12971;DHT22;6550;48.650;8.774;2023-07-30T12:17:14;24.80;94.50
12971;DHT22;6550;48.650;8.774;2023-07-30T12:22:11;24.80;94.60
12971;DHT22;6550;48.650;8.774;2023-07-30T12:24:41;24.50;93.80
12971;DHT22;6550;48.650;8.774;2023-07-30T12:27:07;24.30;93.10
12971;DHT22;6550;48.650;8.774;2023-07-30T12:29:34;24.50;93.20
12971;DHT22;6550;48.650;8.774;2023-07-30T12:32:03;24.80;92.40
12971;DHT22;6550;48.650;8.774;2023-07-30T12:34:34;24.70;92.70
12971;DHT22;6550;48.650;8.774;2023-07-30T12:37:03;24.60;91.80
12971;DHT22;6550;48.650;8.774;2023-07-30T12:39:30;24.10;91.60
12971;DHT22;6550;48.650;8.774;2023-07-30T12:41:57;24.30;92.10
12971;DHT22;6550;48.650;8.774;2023-07-30T12:44:26;24.50;94.20
12971;DHT22;6550;48.650;8.774;2023-07-30T12:46:53;24.80;92.40
12971;DHT22;6550;48.650;8.774;2023-07-30T12:49:22;25.00;91.80
12971;DHT22;6550;48.650;8.774;2023-07-30T12:51:52;25.10;92.70
12971;DHT22;6550;48.650;8.774;2023-07-30T12:54:23;25.10;92.40
12971;DHT22;6550;48.650;8.774;2023-07-30T12:56:49;25.10;91.20
12971;DHT22;6550;48.650;8.774;2023-07-30T12:59:18;25.60;91.50
12971;DHT22;6550;48.650;8.774;2023-07-30T13:01:49;25.00;90.70
12971;DHT22;6550;48.650;8.774;2023-07-30T13:04:16;25.10;90.60
12971;DHT22;6550;48.650;8.774;2023-07-30T13:06:47;25.30;90.80
12971;DHT22;6550;48.650;8.774;2023-07-30T13:09:16;25.20;91.00
12971;DHT22;6550;48.650;8.774;2023-07-30T13:11:43;25.30;91.60
12971;DHT22;6550;48.650;8.774;2023-07-30T13:14:12;25.00;90.40
12971;DHT22;6550;48.650;8.774;2023-07-30T13:16:41;25.00;90.00
12971;DHT22;6550;48.650;8.774;2023-07-30T13:19:08;24.90;88.30
12971;DHT22;6550;48.650;8.774;2023-07-30T13:21:37;25.00;90.40
12971;DHT22;6550;48.650;8.774;2023-07-30T13:24:04;25.30;89.40
12971;DHT22;6550;48.650;8.774;2023-07-30T13:26:31;25.80;89.30
12971;DHT22;6550;48.650;8.774;2023-07-30T13:29:02;26.20;88.00
12971;DHT22;6550;48.650;8.774;2023-07-30T13:31:29;26.40;89.80
12971;DHT22;6550;48.650;8.774;2023-07-30T13:33:57;26.80;88.70
12971;DHT22;6550;48.650;8.774;2023-07-30T13:36:26;26.90;87.60
12971;DHT22;6550;48.650;8.774;2023-07-30T13:38:54;26.40;83.10
12971;DHT22;6550;48.650;8.774;2023-07-30T13:41:24;26.20;87.20
12971;DHT22;6550;48.650;8.774;2023-07-30T13:43:53;26.30;84.30
12971;DHT22;6550;48.650;8.774;2023-07-30T13:46:19;26.70;83.10
12971;DHT22;6550;48.650;8.774;2023-07-30T13:48:46;26.50;81.70
12971;DHT22;6550;48.650;8.774;2023-07-30T13:51:15;26.40;81.10
12971;DHT22;6550;48.650;8.774;2023-07-30T13:53:42;26.50;84.60
12971;DHT22;6550;48.650;8.774;2023-07-30T13:56:11;26.00;82.10
12971;DHT22;6550;48.650;8.774;2023-07-30T13:58:40;26.10;83.20
12971;DHT22;6550;48.650;8.774;2023-07-30T14:01:07;25.90;82.60
12971;DHT22;6550;48.650;8.774;2023-07-30T14:03:38;25.70;82.60
12971;DHT22;6550;48.650;8.774;2023-07-30T14:06:05;26.20;83.20
12971;DHT22;6550;48.650;8.774;2023-07-30T14:08:36;25.90;83.40
12971;DHT22;6550;48.650;8.774;2023-07-30T14:11:03;26.20;82.70
12971;DHT22;6550;48.650;8.774;2023-07-30T14:13:30;26.40;80.80
12971;DHT22;6550;48.650;8.774;2023-07-30T14:15:57;26.20;81.80
12971;DHT22;6550;48.650;8.774;2023-07-30T14:18:26;26.00;85.10
12971;DHT22;6550;48.650;8.774;2023-07-30T14:20:55;26.00;81.80
12971;DHT22;6550;48.650;8.774;2023-07-30T14:23:22;26.20;80.80
12971;DHT22;6550;48.650;8.774;2023-07-30T14:25:48;26.00;81.80
12971;DHT22;6550;48.650;8.774;2023-07-30T14:28:16;25.60;81.80
12971;DHT22;6550;48.650;8.774;2023-07-30T14:30:45;25.80;80.60
12971;DHT22;6550;48.650;8.774;2023-07-30T14:35:39;26.00;81.70
12971;DHT22;6550;48.650;8.774;2023-07-30T14:38:09;26.00;82.60
12971;DHT22;6550;48.650;8.774;2023-07-30T14:40:38;26.00;82.80
12971;DHT22;6550;48.650;8.774;2023-07-30T14:43:05;25.70;80.40
12971;DHT22;6550;48.650;8.774;2023-07-30T14:45:34;25.90;80.30
12971;DHT22;6550;48.650;8.774;2023-07-30T14:48:01;26.50;81.80
12971;DHT22;6550;48.650;8.774;2023-07-30T14:50:28;26.80;80.50
12971;DHT22;6550;48.650;8.774;2023-07-30T14:52:55;26.70;79.80
12971;DHT22;6550;48.650;8.774;2023-07-30T14:55:22;26.40;77.80
12971;DHT22;6550;48.650;8.774;2023-07-30T14:57:51;26.30;78.90
12971;DHT22;6550;48.650;8.774;2023-07-30T15:00:18;26.00;76.90
12971;DHT22;6550;48.650;8.774;2023-07-30T15:02:47;26.00;78.40
12971;DHT22;6550;48.650;8.774;2023-07-30T15:05:14;26.40;77.90
12971;DHT22;6550;48.650;8.774;2023-07-30T15:07:44;26.40;76.10
12971;DHT22;6550;48.650;8.774;2023-07-30T15:10:10;26.60;75.40
12971;DHT22;6550;48.650;8.774;2023-07-30T15:12:40;26.60;73.90
12971;DHT22;6550;48.650;8.774;2023-07-30T15:15:10;26.60;74.20
12971;DHT22;6550;48.650;8.774;2023-07-30T15:17:37;26.90;76.10
12971;DHT22;6550;48.650;8.774;2023-07-30T15:20:04;26.60;75.30
12971;DHT22;6550;48.650;8.774;2023-07-30T15:22:32;26.00;74.40
12971;DHT22;6550;48.650;8.774;2023-07-30T15:25:02;25.80;72.00
12971;DHT22;6550;48.650;8.774;2023-07-30T15:27:31;26.30;72.00
12971;DHT22;6550;48.650;8.774;2023-07-30T15:29:58;26.20;72.00
12971;DHT22;6550;48.650;8.774;2023-07-30T15:32:28;26.60;71.70
12971;DHT22;6550;48.650;8.774;2023-07-30T15:34:56;26.80;71.90
12971;DHT22;6550;48.650;8.774;2023-07-30T15:37:23;26.70;73.50
12971;DHT22;6550;48.650;8.774;2023-07-30T15:39:50;26.80;70.90
12971;DHT22;6550;48.650;8.774;2023-07-30T15:42:17;27.00;69.60
12971;DHT22;6550;48.650;8.774;2023-07-30T15:44:43;26.80;71.50
12971;DHT22;6550;48.650;8.774;2023-07-30T15:47:13;26.20;71.20
12971;DHT22;6550;48.650;8.774;2023-07-30T15:49:42;26.40;72.10
12971;DHT22;6550;48.650;8.774;2023-07-30T15:52:11;26.60;74.20
12971;DHT22;6550;48.650;8.774;2023-07-30T15:57:05;26.30;69.60
12971;DHT22;6550;48.650;8.774;2023-07-30T15:59:37;26.40;70.60
12971;DHT22;6550;48.650;8.774;2023-07-30T16:02:04;25.80;68.20
12971;DHT22;6550;48.650;8.774;2023-07-30T16:04:33;25.60;69.70
12971;DHT22;6550;48.650;8.774;2023-07-30T16:06:59;25.90;68.90
12971;DHT22;6550;48.650;8.774;2023-07-30T16:09:30;26.10;68.80
12971;DHT22;6550;48.650;8.774;2023-07-30T16:11:59;26.00;67.30
12971;DHT22;6550;48.650;8.774;2023-07-30T16:14:26;26.00;67.30
12971;DHT22;6550;48.650;8.774;2023-07-30T16:16:53;26.20;67.70
12971;DHT22;6550;48.650;8.774;2023-07-30T16:21:50;26.50;66.80
12971;DHT22;6550;48.650;8.774;2023-07-30T16:24:18;26.20;67.30
12971;DHT22;6550;48.650;8.774;2023-07-30T16:26:45;26.10;67.10
12971;DHT22;6550;48.650;8.774;2023-07-30T16:29:12;26.00;66.40
12971;DHT22;6550;48.650;8.774;2023-07-30T16:31:38;25.80;70.20
12971;DHT22;6550;48.650;8.774;2023-07-30T16:34:07;25.80;73.90
12971;DHT22;6550;48.650;8.774;2023-07-30T16:36:34;25.70;70.70
12971;DHT22;6550;48.650;8.774;2023-07-30T16:39:01;25.70;70.90
12971;DHT22;6550;48.650;8.774;2023-07-30T16:41:30;25.70;69.60
12971;DHT22;6550;48.650;8.774;2023-07-30T16:43:59;25.70;67.90
12971;DHT22;6550;48.650;8.774;2023-07-30T16:46:28;25.60;67.10
12971;DHT22;6550;48.650;8.774;2023-07-30T16:48:57;25.60;67.00
12971;DHT22;6550;48.650;8.774;2023-07-30T16:53:53;25.70;67.10
12971;DHT22;6550;48.650;8.774;2023-07-30T16:56:22;26.00;67.60